Blaydon-on-Tyne, United Kingdom
Current Conditions -  °F | °C
As of 6:50 PM on Monday 22 Dec 2014 (Local Time) from EGNT Reporting Station
Light Rain Light Rain  
Wind Chill: 10°   Ceiling: 1000
Heat Index: 10°   Visibility: 5mi
Dew Point:   Wind: 13mph
Humidity: 94%   Direction: 280°W
Pressure: 29.65"   Gusts: NA
Location:  54.96°N, 1.72°W
Report Text: EGNT 221850Z 28011KT 8000 -RA BKN010 10/09 Q1004
Loading
Personal Weather Stations






























Interactive Weather Map New forecast layout! Learn more

10-Day Weather Forecast

Advertisements
Track Severe Weather on mobile